createdAt,value
2023-05-05T00:01:59.389Z,98107.50
2023-05-05T00:04:32.313Z,98105.88
2023-05-05T00:07:02.297Z,98104.94
2023-05-05T00:09:32.138Z,98102.44
2023-05-05T00:12:02.058Z,98108.13
2023-05-05T00:14:32.158Z,98106.72
2023-05-05T00:17:02.293Z,98106.78
2023-05-05T00:19:34.922Z,98113.81
2023-05-05T00:22:05.039Z,98109.13
2023-05-05T00:24:34.941Z,98105.25
2023-05-05T00:27:04.870Z,98104.91
2023-05-05T00:29:35.218Z,98107.84
2023-05-05T00:32:05.364Z,98104.50
2023-05-05T00:34:37.770Z,98104.22
2023-05-05T00:37:07.631Z,98111.31
2023-05-05T00:39:37.542Z,98110.13
2023-05-05T00:42:07.515Z,98104.28
2023-05-05T00:44:42.939Z,98098.00
2023-05-05T00:47:13.764Z,98106.50
2023-05-05T00:49:46.869Z,98107.88
2023-05-05T00:52:16.884Z,98109.50
2023-05-05T00:54:46.928Z,98111.84
2023-05-05T00:57:16.834Z,98106.50
2023-05-05T00:59:47.530Z,98108.53
2023-05-05T01:02:17.528Z,98113.47
2023-05-05T01:04:49.967Z,98100.78
2023-05-05T01:07:31.775Z,98104.53
2023-05-05T01:10:19.706Z,98105.81
2023-05-05T01:13:00.980Z,98096.25
2023-05-05T01:15:36.234Z,98096.66
2023-05-05T01:18:14.684Z,98104.16
2023-05-05T01:20:55.550Z,98108.13
2023-05-05T01:23:47.434Z,98105.38
2023-05-05T01:26:39.616Z,98105.75
2023-05-05T01:29:34.268Z,98099.13
2023-05-05T01:32:10.636Z,98106.25
2023-05-05T01:34:45.042Z,98100.78
2023-05-05T01:37:25.807Z,98103.94
2023-05-05T01:40:00.380Z,98107.47
2023-05-05T01:42:32.720Z,98101.94
2023-05-05T01:45:05.529Z,98095.09
2023-05-05T01:47:40.426Z,98094.47
2023-05-05T01:50:12.786Z,98096.03
2023-05-05T01:52:43.996Z,98106.25
2023-05-05T01:55:15.435Z,98104.25
2023-05-05T01:57:47.580Z,98099.59
2023-05-05T02:00:19.573Z,98104.09
2023-05-05T02:02:53.295Z,98106.25
2023-05-05T02:05:26.691Z,98091.38
2023-05-05T02:08:01.585Z,98099.97
2023-05-05T02:10:32.967Z,98099.19
2023-05-05T02:13:04.512Z,98106.88
2023-05-05T02:15:34.721Z,98098.44
2023-05-05T02:18:09.087Z,98097.25
2023-05-05T02:20:41.370Z,98101.94
2023-05-05T02:23:11.671Z,98112.94
2023-05-05T02:25:44.824Z,98108.66
2023-05-05T02:28:21.256Z,98108.44
2023-05-05T02:30:58.567Z,98111.94
2023-05-05T02:33:36.130Z,98121.97
2023-05-05T02:36:14.152Z,98118.81
2023-05-05T02:38:57.562Z,98118.63
2023-05-05T02:41:31.626Z,98116.44
2023-05-05T02:44:07.414Z,98124.31
2023-05-05T02:46:40.412Z,98126.25
2023-05-05T02:49:13.132Z,98127.84
2023-05-05T02:51:43.374Z,98124.66
2023-05-05T02:54:22.254Z,98124.63
2023-05-05T02:56:53.915Z,98119.28
2023-05-05T02:59:33.800Z,98125.72
2023-05-05T03:02:17.028Z,98123.00
2023-05-05T03:04:53.392Z,98118.63
2023-05-05T03:07:28.505Z,98124.13
2023-05-05T03:10:06.028Z,98132.34
2023-05-05T03:12:43.209Z,98136.63
2023-05-05T03:15:21.211Z,98140.19
2023-05-05T03:17:53.272Z,98141.97
2023-05-05T03:20:27.004Z,98131.59
2023-05-05T03:22:58.791Z,98133.59
2023-05-05T03:25:46.775Z,98140.69
2023-05-05T03:28:30.023Z,98141.56
2023-05-05T03:31:02.897Z,98132.16
2023-05-05T03:33:34.223Z,98139.47
2023-05-05T03:36:07.611Z,98139.28
2023-05-05T03:38:37.936Z,98143.56
2023-05-05T03:41:08.002Z,98140.44
2023-05-05T03:43:39.442Z,98141.63
2023-05-05T03:46:10.455Z,98144.75
2023-05-05T03:48:41.863Z,98138.91
2023-05-05T03:51:15.686Z,98140.09
2023-05-05T03:53:46.824Z,98138.13
2023-05-05T03:56:16.746Z,98137.72
2023-05-05T03:58:46.687Z,98147.94
2023-05-05T04:01:16.895Z,98148.72
2023-05-05T04:03:46.880Z,98145.00
2023-05-05T04:06:19.689Z,98151.66
2023-05-05T04:08:49.670Z,98153.63
2023-05-05T04:11:19.577Z,98144.22
2023-05-05T04:13:50.121Z,98147.16
2023-05-05T04:16:21.468Z,98145.38
2023-05-05T04:18:51.468Z,98150.50
2023-05-05T04:21:24.018Z,98156.56
2023-05-05T04:23:54.007Z,98164.06
2023-05-05T04:26:25.044Z,98158.53
2023-05-05T04:28:55.955Z,98156.94
2023-05-05T04:31:26.169Z,98156.72
2023-05-05T04:33:56.201Z,98156.09
2023-05-05T04:36:28.830Z,98156.16
2023-05-05T04:38:58.909Z,98162.59
2023-05-05T04:41:30.149Z,98161.38
2023-05-05T04:44:00.990Z,98161.75
2023-05-05T04:46:31.131Z,98165.25
2023-05-05T04:49:03.584Z,98172.97
2023-05-05T04:51:36.404Z,98167.28
2023-05-05T04:54:07.571Z,98170.88
2023-05-05T04:56:37.541Z,98178.66
2023-05-05T04:59:07.788Z,98178.56
2023-05-05T05:01:38.746Z,98187.03
2023-05-05T05:04:08.655Z,98187.44
2023-05-05T05:06:41.307Z,98187.78
2023-05-05T05:09:11.225Z,98188.03
2023-05-05T05:11:41.322Z,98191.22
2023-05-05T05:14:11.177Z,98190.53
2023-05-05T05:16:41.196Z,98193.72
2023-05-05T05:19:11.142Z,98190.19
2023-05-05T05:21:43.646Z,98196.94
2023-05-05T05:24:13.919Z,98202.94
2023-05-05T05:26:43.850Z,98200.75
2023-05-05T05:29:14.074Z,98204.53
2023-05-05T05:31:43.971Z,98203.03
2023-05-05T05:34:13.905Z,98213.25
2023-05-05T05:36:47.191Z,98201.00
2023-05-05T05:39:17.080Z,98216.97
2023-05-05T05:41:47.327Z,98209.19
2023-05-05T05:44:17.305Z,98208.41
2023-05-05T05:46:47.355Z,98199.72
2023-05-05T05:49:19.162Z,98199.97
2023-05-05T05:51:51.660Z,98208.03
2023-05-05T05:54:21.530Z,98202.28
2023-05-05T05:56:51.515Z,98204.84
2023-05-05T05:59:21.489Z,98214.06
2023-05-05T06:01:51.370Z,98218.75
2023-05-05T06:04:21.335Z,98220.19
2023-05-05T06:06:54.955Z,98219.94
2023-05-05T06:09:25.596Z,98223.63
2023-05-05T06:11:57.443Z,98226.72
2023-05-05T06:14:27.905Z,98219.34
2023-05-05T06:16:58.197Z,98224.97
2023-05-05T06:19:30.755Z,98211.06
2023-05-05T06:22:03.812Z,98208.00
2023-05-05T06:24:34.078Z,98205.97
2023-05-05T06:27:05.716Z,98213.66
2023-05-05T06:29:36.109Z,98214.69
2023-05-05T06:32:08.422Z,98214.56
2023-05-05T06:34:38.681Z,98209.66
2023-05-05T06:37:11.612Z,98210.19
2023-05-05T06:39:41.883Z,98217.19
2023-05-05T06:42:12.226Z,98218.72
2023-05-05T06:44:42.583Z,98218.22
2023-05-05T06:47:12.802Z,98212.19
2023-05-05T06:49:43.004Z,98213.59
2023-05-05T06:52:15.811Z,98223.19
2023-05-05T06:54:46.307Z,98228.59
2023-05-05T06:57:16.660Z,98220.94
2023-05-05T06:59:46.855Z,98232.69
2023-05-05T07:02:17.185Z,98223.91
2023-05-05T07:04:47.614Z,98229.09
2023-05-05T07:07:21.248Z,98224.59
2023-05-05T07:09:51.548Z,98232.25
2023-05-05T07:12:22.045Z,98223.06
2023-05-05T07:14:52.363Z,98234.16
2023-05-05T07:17:22.601Z,98232.72
2023-05-05T07:19:55.153Z,98220.72
2023-05-05T07:22:28.003Z,98228.50
2023-05-05T07:24:58.468Z,98234.59
2023-05-05T07:27:28.947Z,98232.91
2023-05-05T07:29:59.279Z,98228.66
2023-05-05T07:32:29.688Z,98234.00
2023-05-05T07:34:59.947Z,98232.31
2023-05-05T07:37:32.805Z,98235.97
2023-05-05T07:40:03.113Z,98238.88
2023-05-05T07:42:33.486Z,98236.16
2023-05-05T07:45:03.751Z,98229.63
2023-05-05T07:47:34.102Z,98237.47
2023-05-05T07:50:04.330Z,98233.91
2023-05-05T07:52:44.986Z,98234.25
2023-05-05T07:55:18.382Z,98232.13
2023-05-05T07:57:49.820Z,98235.69
2023-05-05T08:00:21.902Z,98239.38
2023-05-05T08:02:52.310Z,98230.44
2023-05-05T08:05:22.601Z,98235.97
2023-05-05T08:07:55.440Z,98234.69
2023-05-05T08:10:25.821Z,98233.16
2023-05-05T08:12:56.180Z,98235.78
2023-05-05T08:15:26.535Z,98238.22
2023-05-05T08:17:57.508Z,98239.03
2023-05-05T08:20:30.776Z,98234.53
2023-05-05T08:23:03.603Z,98239.75
2023-05-05T08:25:34.178Z,98241.03
2023-05-05T08:28:04.795Z,98239.19
2023-05-05T08:30:35.143Z,98246.41
2023-05-05T08:33:05.384Z,98255.97
2023-05-05T08:35:35.698Z,98254.38
2023-05-05T08:38:08.564Z,98253.16
2023-05-05T08:40:41.173Z,98266.78
2023-05-05T08:43:11.435Z,98265.28
2023-05-05T08:45:43.180Z,98268.91
2023-05-05T08:48:14.656Z,98267.78
2023-05-05T08:50:47.654Z,98270.41
2023-05-05T08:53:24.712Z,98266.09
2023-05-05T08:55:56.774Z,98261.63
2023-05-05T08:58:28.976Z,98259.09
2023-05-05T09:01:01.680Z,98256.66
2023-05-05T09:03:32.437Z,98261.91
2023-05-05T09:06:02.938Z,98256.63
2023-05-05T09:08:36.050Z,98258.06
2023-05-05T09:11:06.336Z,98256.84
2023-05-05T09:13:36.516Z,98254.38
2023-05-05T09:16:07.048Z,98251.16
2023-05-05T09:18:41.257Z,98247.59
2023-05-05T09:21:24.944Z,98252.78
2023-05-05T09:24:11.154Z,98248.34
2023-05-05T09:26:42.006Z,98248.78
2023-05-05T09:29:12.289Z,98236.44
2023-05-05T09:31:42.645Z,98239.78
2023-05-05T09:34:19.399Z,98230.19
2023-05-05T09:36:50.392Z,98218.63
2023-05-05T09:39:23.255Z,98222.56
2023-05-05T09:41:53.701Z,98214.00
2023-05-05T09:44:36.505Z,98214.31
2023-05-05T09:47:18.161Z,98203.03
2023-05-05T09:50:00.528Z,98215.94
2023-05-05T09:52:31.365Z,98213.75
2023-05-05T09:55:04.286Z,98208.63
2023-05-05T09:57:35.584Z,98204.47
2023-05-05T10:00:06.639Z,98214.31
2023-05-05T10:02:37.922Z,98220.47
2023-05-05T10:05:11.234Z,98218.63
2023-05-05T10:07:42.531Z,98219.13
2023-05-05T10:10:17.412Z,98218.09
2023-05-05T10:12:49.801Z,98216.91
2023-05-05T10:15:20.668Z,98217.19
2023-05-05T10:18:06.038Z,98214.84
2023-05-05T10:20:39.231Z,98204.09
2023-05-05T10:23:10.954Z,98209.47
2023-05-05T10:25:49.384Z,98212.31
2023-05-05T10:28:26.345Z,98195.50
2023-05-05T10:30:59.605Z,98195.56
2023-05-05T10:33:37.368Z,98186.72
2023-05-05T10:36:08.155Z,98189.72
2023-05-05T10:38:39.112Z,98185.13
2023-05-05T10:41:14.629Z,98190.72
2023-05-05T10:43:45.476Z,98185.63
2023-05-05T10:46:16.124Z,98183.19
2023-05-05T10:48:52.170Z,98177.28
2023-05-05T10:51:39.332Z,98177.25
2023-05-05T10:54:16.182Z,98173.81
2023-05-05T10:56:50.106Z,98174.84
2023-05-05T10:59:44.646Z,98172.25
2023-05-05T11:02:25.107Z,98175.16
2023-05-05T11:05:10.769Z,98161.06
2023-05-05T11:07:41.252Z,98156.56
2023-05-05T11:10:12.605Z,98146.44
2023-05-05T11:13:12.810Z,98147.09
2023-05-05T11:15:45.637Z,98140.94
2023-05-05T11:18:35.884Z,98135.22
2023-05-05T11:21:15.842Z,98129.78
2023-05-05T11:23:47.697Z,98133.00
2023-05-05T11:26:19.519Z,98138.25
2023-05-05T11:29:01.376Z,98128.44
2023-05-05T11:31:34.784Z,98132.06
2023-05-05T11:34:40.660Z,98121.19
2023-05-05T11:37:10.845Z,98121.53
2023-05-05T11:39:54.033Z,98116.06
2023-05-05T11:42:28.302Z,98118.13
2023-05-05T11:44:58.232Z,98115.50
2023-05-05T11:47:35.674Z,98116.06
2023-05-05T11:50:20.266Z,98112.03
2023-05-05T11:52:51.260Z,98116.66
2023-05-05T11:55:27.490Z,98118.34
2023-05-05T11:57:57.386Z,98116.97
2023-05-05T12:00:36.825Z,98120.03
2023-05-05T12:03:09.623Z,98114.47
2023-05-05T12:05:39.628Z,98121.31
2023-05-05T12:08:10.736Z,98119.47
2023-05-05T12:10:41.222Z,98117.41
2023-05-05T12:13:21.147Z,98118.50
2023-05-05T12:15:51.187Z,98118.34
2023-05-05T12:18:24.190Z,98114.69
2023-05-05T12:20:54.086Z,98112.31
2023-05-05T12:23:27.423Z,98110.56
2023-05-05T12:25:57.275Z,98109.56
2023-05-05T12:28:27.153Z,98097.09
2023-05-05T12:31:00.777Z,98092.44
2023-05-05T12:33:33.555Z,98086.00
2023-05-05T12:36:04.600Z,98081.22
2023-05-05T12:38:34.497Z,98083.84
2023-05-05T12:41:05.620Z,98082.88
2023-05-05T12:43:36.660Z,98077.53
2023-05-05T12:46:08.929Z,98066.34
2023-05-05T12:48:46.348Z,98070.31
2023-05-05T12:51:23.423Z,98068.38
2023-05-05T12:54:06.218Z,98066.91
2023-05-05T12:56:40.806Z,98061.47
2023-05-05T12:59:11.972Z,98053.59
2023-05-05T13:01:52.198Z,98056.53
2023-05-05T13:04:25.826Z,98041.22
2023-05-05T13:07:12.545Z,98042.19
2023-05-05T13:09:42.802Z,98042.47
2023-05-05T13:12:13.192Z,98041.84
2023-05-05T13:14:44.254Z,98032.88
2023-05-05T13:17:14.496Z,98024.97
2023-05-05T13:19:48.784Z,98028.78
2023-05-05T13:22:19.528Z,98025.63
2023-05-05T13:24:52.214Z,98016.78
2023-05-05T13:27:23.830Z,98010.69
2023-05-05T13:29:53.704Z,98007.56
2023-05-05T13:32:23.643Z,98010.44
2023-05-05T13:34:56.159Z,98001.59
2023-05-05T13:37:26.094Z,98000.00
2023-05-05T13:39:59.462Z,97999.88
2023-05-05T13:42:29.569Z,97995.91
2023-05-05T13:44:59.463Z,97997.53
2023-05-05T13:47:29.481Z,97988.28
2023-05-05T13:50:02.196Z,97992.53
2023-05-05T13:52:32.988Z,97988.59
2023-05-05T13:55:03.564Z,97976.38
2023-05-05T13:57:33.446Z,97968.81
2023-05-05T14:00:04.502Z,97968.78
2023-05-05T14:02:39.908Z,97957.53
2023-05-05T14:05:13.112Z,97946.41
2023-05-05T14:07:43.376Z,97934.09
2023-05-05T14:10:13.608Z,97944.72
2023-05-05T14:12:43.783Z,97942.59
2023-05-05T14:15:14.062Z,97938.78
2023-05-05T14:17:44.058Z,97934.84
2023-05-05T14:20:16.865Z,97930.97
2023-05-05T14:22:48.827Z,97932.97
2023-05-05T14:25:19.426Z,97932.59
2023-05-05T14:27:49.377Z,97934.91
2023-05-05T14:30:19.430Z,97937.09
2023-05-05T14:32:49.352Z,97933.59
2023-05-05T14:35:21.901Z,97940.53
2023-05-05T14:37:51.802Z,97929.59
2023-05-05T14:40:21.833Z,97935.31
2023-05-05T14:42:51.967Z,97930.47
2023-05-05T14:45:21.869Z,97932.72
2023-05-05T14:47:51.855Z,97922.13
2023-05-05T14:50:24.538Z,97922.63
2023-05-05T14:52:54.504Z,97912.66
2023-05-05T14:55:25.118Z,97914.94
2023-05-05T14:57:55.032Z,97908.84
2023-05-05T15:00:26.666Z,97909.34
2023-05-05T15:02:56.880Z,97912.66
2023-05-05T15:05:29.444Z,97915.97
2023-05-05T15:07:59.403Z,97919.38
2023-05-05T15:10:29.289Z,97921.84
2023-05-05T15:12:59.176Z,97917.34
2023-05-05T15:15:29.108Z,97923.69
2023-05-05T15:17:59.062Z,97924.75
2023-05-05T15:20:31.900Z,97918.66
2023-05-05T15:23:01.790Z,97909.84
2023-05-05T15:25:31.785Z,97920.38
2023-05-05T15:28:01.647Z,97914.84
2023-05-05T15:30:32.171Z,97906.06
2023-05-05T15:33:02.150Z,97914.28
2023-05-05T15:35:34.686Z,97910.16
2023-05-05T15:38:04.908Z,97911.97
2023-05-05T15:40:34.831Z,97913.81
2023-05-05T15:43:04.744Z,97912.03
2023-05-05T15:45:34.705Z,97916.69
2023-05-05T15:48:04.695Z,97916.94
2023-05-05T15:50:37.502Z,97919.81
2023-05-05T15:53:07.474Z,97909.19
2023-05-05T15:55:38.134Z,97919.50
2023-05-05T15:58:08.080Z,97916.13
2023-05-05T16:00:41.838Z,97909.34
2023-05-05T16:03:11.895Z,97920.91
2023-05-05T16:05:44.529Z,97927.00
2023-05-05T16:08:14.442Z,97933.53
2023-05-05T16:10:44.679Z,97933.75
2023-05-05T16:13:14.629Z,97941.31
2023-05-05T16:15:44.824Z,97937.03
2023-05-05T16:18:14.837Z,97952.66
2023-05-05T16:20:47.289Z,97964.91
2023-05-05T16:23:17.174Z,97970.50
2023-05-05T16:25:47.193Z,97982.53
2023-05-05T16:28:17.380Z,97981.16
2023-05-05T16:30:47.351Z,97983.44
2023-05-05T16:33:17.261Z,97986.72
2023-05-05T16:35:49.705Z,97998.13
2023-05-05T16:38:19.529Z,97993.13
2023-05-05T16:40:49.611Z,97995.69
2023-05-05T16:43:19.734Z,98001.59
2023-05-05T16:45:49.636Z,98003.94
2023-05-05T16:48:20.285Z,98011.31
2023-05-05T16:50:52.751Z,98028.31
2023-05-05T16:53:22.659Z,98040.72
2023-05-05T16:55:53.382Z,98049.69
2023-05-05T16:58:23.476Z,98065.19
2023-05-05T17:00:54.696Z,98055.34
2023-05-05T17:03:25.061Z,98056.56
2023-05-05T17:05:57.702Z,98056.03
2023-05-05T17:08:27.686Z,98046.28
2023-05-05T17:10:57.613Z,98049.75
2023-05-05T17:13:27.477Z,98051.00
2023-05-05T17:15:57.699Z,98040.91
2023-05-05T17:18:27.676Z,98040.78
2023-05-05T17:21:00.169Z,98042.09
2023-05-05T17:23:30.491Z,98041.72
2023-05-05T17:26:01.145Z,98049.69
2023-05-05T17:28:31.030Z,98057.72
2023-05-05T17:31:02.209Z,98071.41
2023-05-05T17:33:32.085Z,98066.53
2023-05-05T17:36:04.649Z,98062.84
2023-05-05T17:38:34.527Z,98059.69
2023-05-05T17:41:04.466Z,98059.81
2023-05-05T17:43:34.324Z,98060.25
2023-05-05T17:46:04.318Z,98061.75
2023-05-05T17:48:34.277Z,98055.00
2023-05-05T17:51:07.086Z,98054.81
2023-05-05T17:53:37.063Z,98064.41
2023-05-05T17:56:08.908Z,98060.81
2023-05-05T17:58:39.309Z,98054.09
2023-05-05T18:01:13.582Z,98059.91
2023-05-05T18:03:43.520Z,98054.53
2023-05-05T18:06:16.054Z,98042.25
2023-05-05T18:08:46.846Z,98034.88
2023-05-05T18:11:16.840Z,98030.69
2023-05-05T18:13:46.676Z,98031.53
2023-05-05T18:16:18.330Z,98044.38
2023-05-05T18:18:48.301Z,98053.22
2023-05-05T18:21:20.873Z,98058.56
2023-05-05T18:23:50.811Z,98058.75
2023-05-05T18:26:20.748Z,98066.09
2023-05-05T18:28:50.622Z,98063.41
2023-05-05T18:31:20.706Z,98070.63
2023-05-05T18:33:51.223Z,98068.50
2023-05-05T18:36:26.719Z,98070.47
2023-05-05T18:38:56.771Z,98064.50
2023-05-05T18:41:26.879Z,98062.94
2023-05-05T18:43:56.823Z,98062.03
2023-05-05T18:46:26.926Z,98058.34
2023-05-05T18:48:56.940Z,98058.97
2023-05-05T18:51:29.376Z,98073.75
2023-05-05T18:54:01.043Z,98071.03
2023-05-05T18:56:31.327Z,98078.94
2023-05-05T18:59:01.364Z,98087.25
2023-05-05T19:01:31.291Z,98096.88
2023-05-05T19:04:01.200Z,98103.06
2023-05-05T19:06:33.894Z,98117.66
2023-05-05T19:09:04.154Z,98119.84
2023-05-05T19:11:34.167Z,98116.13
2023-05-05T19:14:04.046Z,98117.75
2023-05-05T19:16:34.104Z,98112.16
2023-05-05T19:19:04.126Z,98112.47
2023-05-05T19:21:36.561Z,98116.88
2023-05-05T19:24:06.857Z,98117.28
2023-05-05T19:26:36.755Z,98115.88
2023-05-05T19:29:06.677Z,98117.38
2023-05-05T19:31:36.696Z,98127.13
2023-05-05T19:34:08.030Z,98128.53
2023-05-05T19:36:40.951Z,98132.09
2023-05-05T19:39:11.409Z,98137.41
2023-05-05T19:41:42.067Z,98148.75
2023-05-05T19:44:12.904Z,98149.78
2023-05-05T19:46:43.015Z,98150.19
2023-05-05T19:49:13.118Z,98150.03
2023-05-05T19:51:47.702Z,98150.09
2023-05-05T19:54:17.876Z,98160.88
2023-05-05T19:56:47.855Z,98164.47
2023-05-05T19:59:17.739Z,98164.03
2023-05-05T20:01:47.678Z,98161.22
2023-05-05T20:04:17.684Z,98169.06
2023-05-05T20:06:50.229Z,98169.91
2023-05-05T20:09:20.224Z,98169.31
2023-05-05T20:11:50.095Z,98176.75
2023-05-05T20:14:19.972Z,98176.53
2023-05-05T20:16:49.830Z,98178.81
2023-05-05T20:19:19.831Z,98178.78
2023-05-05T20:21:52.532Z,98180.13
2023-05-05T20:24:22.467Z,98177.00
2023-05-05T20:26:52.423Z,98190.59
2023-05-05T20:29:22.709Z,98174.78
2023-05-05T20:31:52.600Z,98173.06
2023-05-05T20:34:25.124Z,98175.78
2023-05-05T20:36:58.446Z,98165.69
2023-05-05T20:39:28.328Z,98169.41
2023-05-05T20:41:58.222Z,98176.66
2023-05-05T20:44:28.155Z,98178.22
2023-05-05T20:46:58.131Z,98179.38
2023-05-05T20:49:28.110Z,98183.44
2023-05-05T20:52:00.746Z,98189.81
2023-05-05T20:54:34.341Z,98182.66
2023-05-05T20:57:04.729Z,98185.38
2023-05-05T20:59:34.984Z,98185.00
2023-05-05T21:02:04.867Z,98185.03
2023-05-05T21:04:34.819Z,98193.75
2023-05-05T21:07:07.284Z,98190.34
2023-05-05T21:09:38.039Z,98188.75
2023-05-05T21:12:08.877Z,98179.03
2023-05-05T21:14:38.716Z,98188.94
2023-05-05T21:17:08.581Z,98180.13
2023-05-05T21:19:38.447Z,98173.41
2023-05-05T21:22:11.071Z,98169.00
2023-05-05T21:24:41.230Z,98162.66
2023-05-05T21:27:11.055Z,98165.06
2023-05-05T21:29:41.037Z,98169.44
2023-05-05T21:32:13.065Z,98179.59
2023-05-05T21:34:42.950Z,98177.19
2023-05-05T21:37:15.771Z,98168.53
2023-05-05T21:39:45.780Z,98171.78
2023-05-05T21:42:16.110Z,98174.97
2023-05-05T21:44:46.106Z,98171.22
2023-05-05T21:47:16.428Z,98168.47
2023-05-05T21:49:46.313Z,98172.81
2023-05-05T21:52:18.825Z,98166.16
2023-05-05T21:54:48.757Z,98161.53
2023-05-05T21:57:18.905Z,98163.06
2023-05-05T21:59:48.777Z,98158.53
2023-05-05T22:02:18.671Z,98156.38
2023-05-05T22:04:49.406Z,98155.03
2023-05-05T22:07:21.998Z,98152.28
2023-05-05T22:09:52.722Z,98158.97
2023-05-05T22:12:22.570Z,98148.72
2023-05-05T22:14:52.458Z,98153.34
2023-05-05T22:17:22.260Z,98158.53
2023-05-05T22:19:52.136Z,98152.91
2023-05-05T22:22:24.668Z,98154.81
2023-05-05T22:24:54.524Z,98156.94
2023-05-05T22:27:25.019Z,98146.41
2023-05-05T22:29:54.902Z,98143.75
2023-05-05T22:32:24.895Z,98148.88
2023-05-05T22:34:54.784Z,98146.16
2023-05-05T22:37:27.603Z,98150.13
2023-05-05T22:39:57.568Z,98148.72
2023-05-05T22:42:27.456Z,98143.97
2023-05-05T22:44:57.533Z,98147.44
2023-05-05T22:47:27.676Z,98148.19
2023-05-05T22:49:57.963Z,98141.91
2023-05-05T22:52:30.873Z,98145.91
2023-05-05T22:55:00.952Z,98148.25
2023-05-05T22:57:30.962Z,98153.00
2023-05-05T23:00:00.865Z,98153.84
2023-05-05T23:02:31.931Z,98163.41
2023-05-05T23:05:01.823Z,98155.13
2023-05-05T23:07:34.344Z,98149.06
2023-05-05T23:10:04.258Z,98150.41
2023-05-05T23:12:34.309Z,98147.72
2023-05-05T23:15:04.290Z,98146.31
2023-05-05T23:17:34.226Z,98150.69
2023-05-05T23:20:05.421Z,98152.28
2023-05-05T23:22:38.032Z,98149.13
2023-05-05T23:25:08.858Z,98147.94
2023-05-05T23:27:39.033Z,98147.16
2023-05-05T23:30:10.614Z,98144.19
2023-05-05T23:32:40.816Z,98144.97
2023-05-05T23:35:12.046Z,98142.03
2023-05-05T23:37:44.766Z,98145.44
2023-05-05T23:40:14.666Z,98150.97
2023-05-05T23:42:44.610Z,98145.22
2023-05-05T23:45:14.540Z,98145.50
2023-05-05T23:47:44.528Z,98143.84
2023-05-05T23:50:14.536Z,98148.59
2023-05-05T23:52:47.086Z,98146.41
2023-05-05T23:55:17.172Z,98150.97
2023-05-05T23:57:47.079Z,98151.91
